createdAt,value
2023-01-10T00:09:36.802Z,23.57
2023-01-10T00:19:38.827Z,24.07
2023-01-10T00:29:43.573Z,24.57
2023-01-10T00:39:48.034Z,23.77
2023-01-10T00:49:50.121Z,22.93
2023-01-10T00:59:52.306Z,23.50
2023-01-10T01:10:12.907Z,23.93
2023-01-10T01:20:18.094Z,24.47
2023-01-10T01:30:20.131Z,24.77
2023-01-10T01:40:24.854Z,23.93
2023-01-10T01:50:35.074Z,26.20
2023-01-10T02:00:42.505Z,25.93
2023-01-10T02:10:49.066Z,27.60
2023-01-10T02:21:19.615Z,27.33
2023-01-10T02:31:30.983Z,27.37
2023-01-10T02:41:45.706Z,26.80
2023-01-10T02:51:50.076Z,26.10
2023-01-10T03:02:13.825Z,26.30
2023-01-10T03:12:25.033Z,24.60
2023-01-10T03:22:29.398Z,26.23
2023-01-10T03:32:36.672Z,26.97
2023-01-10T03:43:12.807Z,25.13
2023-01-10T03:53:20.591Z,23.47
2023-01-10T04:03:23.519Z,23.40
2023-01-10T04:13:25.547Z,24.00
2023-01-10T04:23:30.020Z,23.97
2023-01-10T04:33:34.374Z,23.67
2023-01-10T04:43:39.033Z,22.57
2023-01-10T04:53:41.706Z,25.50
2023-01-10T05:03:44.294Z,25.17
2023-01-10T05:13:48.064Z,26.23
2023-01-10T05:23:53.501Z,23.63
2023-01-10T05:33:55.563Z,25.00
2023-01-10T05:43:59.993Z,25.43
2023-01-10T05:54:02.066Z,20.73
2023-01-10T06:04:06.324Z,26.17
2023-01-10T06:14:08.454Z,25.33
2023-01-10T06:24:12.603Z,23.97
2023-01-10T06:34:20.272Z,22.70
2023-01-10T06:44:22.415Z,26.87
2023-01-10T06:54:29.129Z,24.27
2023-01-10T07:04:34.264Z,23.30
2023-01-10T07:14:36.401Z,24.83
2023-01-10T07:24:40.794Z,23.53
2023-01-10T07:34:45.485Z,18.50
2023-01-10T07:44:49.474Z,22.87
2023-01-10T07:54:56.335Z,22.63
2023-01-10T08:05:00.914Z,24.47
2023-01-10T08:15:08.565Z,21.40
2023-01-10T08:25:13.276Z,22.27
2023-01-10T08:35:18.550Z,22.47
2023-01-10T08:45:24.454Z,20.63
2023-01-10T08:55:27.371Z,21.47
2023-01-10T09:05:31.407Z,20.77
2023-01-10T09:15:35.996Z,20.97
2023-01-10T09:25:38.858Z,19.63
2023-01-10T09:35:46.267Z,18.60
2023-01-10T09:46:08.724Z,19.90
2023-01-10T09:56:16.220Z,20.40
2023-01-10T10:06:20.943Z,19.37
2023-01-10T10:16:28.536Z,17.90
2023-01-10T10:26:42.607Z,16.50
2023-01-10T10:36:53.480Z,18.83
2023-01-10T10:46:58.262Z,20.20
2023-01-10T10:57:00.322Z,18.37
2023-01-10T11:07:07.599Z,19.37
2023-01-10T11:17:27.395Z,18.90
2023-01-10T11:27:32.394Z,18.47
2023-01-10T11:37:36.226Z,18.53
2023-01-10T11:47:45.226Z,17.47
2023-01-10T11:57:59.237Z,17.30
2023-01-10T12:08:06.896Z,17.57
2023-01-10T12:18:11.972Z,15.87
2023-01-10T12:28:23.014Z,15.27
2023-01-10T12:38:59.874Z,15.40
2023-01-10T12:49:26.716Z,15.80
2023-01-10T12:59:38.497Z,21.13
2023-01-10T13:09:44.431Z,16.30
2023-01-10T13:20:24.608Z,17.13
2023-01-10T13:30:37.796Z,17.10
2023-01-10T13:41:02.220Z,18.07
2023-01-10T13:51:21.101Z,16.60
2023-01-10T14:01:44.727Z,17.70
2023-01-10T14:12:23.003Z,15.43
2023-01-10T14:22:31.349Z,16.50
2023-01-10T14:32:41.527Z,14.37
2023-01-10T14:42:49.956Z,14.60
2023-01-10T14:52:54.970Z,14.37
2023-01-10T15:03:02.991Z,13.80
2023-01-10T15:13:06.026Z,13.00
2023-01-10T15:23:14.623Z,12.63
2023-01-10T15:33:29.417Z,11.37
2023-01-10T15:43:36.917Z,12.63
2023-01-10T15:54:06.338Z,13.53
2023-01-10T16:04:15.306Z,14.93
2023-01-10T16:14:23.127Z,14.73
2023-01-10T16:24:26.887Z,15.53
2023-01-10T16:34:29.022Z,16.23
2023-01-10T16:44:44.496Z,16.70
2023-01-10T16:54:51.314Z,16.13
2023-01-10T17:04:59.579Z,22.80
2023-01-10T17:15:08.665Z,16.50
2023-01-10T17:25:17.592Z,15.43
2023-01-10T17:35:22.851Z,17.10
2023-01-10T17:45:25.249Z,16.90
2023-01-10T17:55:28.903Z,16.57
2023-01-10T18:05:32.884Z,17.30
2023-01-10T18:15:37.179Z,16.67
2023-01-10T18:25:53.110Z,15.07
2023-01-10T18:35:56.735Z,16.20
2023-01-10T18:46:06.813Z,14.57
2023-01-10T18:56:14.943Z,14.67
2023-01-10T19:06:22.790Z,14.10
2023-01-10T19:16:27.288Z,15.07
2023-01-10T19:26:29.537Z,15.87
2023-01-10T19:36:34.877Z,14.00
2023-01-10T19:46:39.080Z,14.77
2023-01-10T19:56:41.282Z,14.37
2023-01-10T20:06:51.243Z,14.90
2023-01-10T20:16:53.477Z,15.97
2023-01-10T20:26:57.531Z,17.90
2023-01-10T20:37:06.503Z,18.07
2023-01-10T20:47:09.177Z,19.47
2023-01-10T20:57:14.535Z,21.63
2023-01-10T21:07:17.603Z,24.23
2023-01-10T21:17:20.213Z,24.60
2023-01-10T21:27:22.560Z,24.27
2023-01-10T21:37:24.806Z,26.20
2023-01-10T21:47:26.973Z,23.00
2023-01-10T21:57:31.027Z,21.20
2023-01-10T22:07:33.266Z,23.00
2023-01-10T22:17:37.994Z,19.60
2023-01-10T22:27:45.348Z,22.93
2023-01-10T22:37:47.544Z,19.93
2023-01-10T22:47:50.366Z,19.70
2023-01-10T22:57:54.865Z,19.53
2023-01-10T23:07:59.300Z,17.97
2023-01-10T23:18:06.249Z,17.67
2023-01-10T23:28:08.669Z,19.63
2023-01-10T23:38:10.763Z,18.37
2023-01-10T23:48:15.624Z,16.37
2023-01-10T23:58:27.115Z,15.30
